sensor_id;sensor_type;location;lat;lon;timestamp;pressure;altitude;pressure_sealevel;temperature;humidity
34034;BME280;63481;52.588;22.472;2023-02-04T00:00:23;99775.08;;;-1.31;83.37
34034;BME280;63481;52.588;22.472;2023-02-04T00:01:32;99783.08;;;-1.35;83.26
34034;BME280;63481;52.588;22.472;2023-02-04T00:02:25;99788.50;;;-1.35;83.19
34034;BME280;63481;52.588;22.472;2023-02-04T00:03:18;99792.40;;;-1.32;83.36
34034;BME280;63481;52.588;22.472;2023-02-04T00:04:12;99795.46;;;-1.31;83.38
34034;BME280;63481;52.588;22.472;2023-02-04T00:05:06;99793.71;;;-1.29;83.20
34034;BME280;63481;52.588;22.472;2023-02-04T00:05:58;99798.90;;;-1.31;83.33
34034;BME280;63481;52.588;22.472;2023-02-04T00:06:51;99799.12;;;-1.29;83.30
34034;BME280;63481;52.588;22.472;2023-02-04T00:07:44;99804.41;;;-1.28;83.25
34034;BME280;63481;52.588;22.472;2023-02-04T00:08:36;99801.71;;;-1.33;83.37
34034;BME280;63481;52.588;22.472;2023-02-04T00:09:29;99803.37;;;-1.35;83.59
34034;BME280;63481;52.588;22.472;2023-02-04T00:10:22;99802.39;;;-1.32;83.45
34034;BME280;63481;52.588;22.472;2023-02-04T00:11:15;99807.76;;;-1.30;83.54
34034;BME280;63481;52.588;22.472;2023-02-04T00:12:07;99807.89;;;-1.28;83.45
34034;BME280;63481;52.588;22.472;2023-02-04T00:13:02;99809.92;;;-1.27;83.32
34034;BME280;63481;52.588;22.472;2023-02-04T00:13:55;99812.84;;;-1.27;83.39
34034;BME280;63481;52.588;22.472;2023-02-04T00:14:48;99816.42;;;-1.28;83.23
34034;BME280;63481;52.588;22.472;2023-02-04T00:15:41;99815.05;;;-1.26;83.19
34034;BME280;63481;52.588;22.472;2023-02-04T00:16:33;99820.64;;;-1.26;83.36
34034;BME280;63481;52.588;22.472;2023-02-04T00:17:26;99820.19;;;-1.27;83.26
34034;BME280;63481;52.588;22.472;2023-02-04T00:18:19;99823.20;;;-1.26;83.19
34034;BME280;63481;52.588;22.472;2023-02-04T00:19:11;99823.23;;;-1.26;83.17
34034;BME280;63481;52.588;22.472;2023-02-04T00:20:04;99823.56;;;-1.26;83.36
34034;BME280;63481;52.588;22.472;2023-02-04T00:20:57;99823.52;;;-1.24;83.23
34034;BME280;63481;52.588;22.472;2023-02-04T00:21:50;99829.30;;;-1.26;83.15
34034;BME280;63481;52.588;22.472;2023-02-04T00:22:43;99830.33;;;-1.25;83.07
34034;BME280;63481;52.588;22.472;2023-02-04T00:23:35;99834.04;;;-1.24;83.21
34034;BME280;63481;52.588;22.472;2023-02-04T00:24:28;99832.98;;;-1.22;83.08
34034;BME280;63481;52.588;22.472;2023-02-04T00:25:22;99834.60;;;-1.26;83.06
34034;BME280;63481;52.588;22.472;2023-02-04T00:26:14;99839.55;;;-1.27;83.08
34034;BME280;63481;52.588;22.472;2023-02-04T00:27:07;99840.52;;;-1.27;83.18
34034;BME280;63481;52.588;22.472;2023-02-04T00:28:00;99845.46;;;-1.25;83.11
34034;BME280;63481;52.588;22.472;2023-02-04T00:28:53;99846.08;;;-1.26;83.07
34034;BME280;63481;52.588;22.472;2023-02-04T00:29:45;99853.08;;;-1.26;83.13
34034;BME280;63481;52.588;22.472;2023-02-04T00:30:38;99856.63;;;-1.25;82.99
34034;BME280;63481;52.588;22.472;2023-02-04T00:31:31;99858.81;;;-1.24;82.87
34034;BME280;63481;52.588;22.472;2023-02-04T00:32:25;99861.24;;;-1.26;82.84
34034;BME280;63481;52.588;22.472;2023-02-04T00:33:19;99860.91;;;-1.28;82.78
34034;BME280;63481;52.588;22.472;2023-02-04T00:34:12;99864.64;;;-1.29;82.85
34034;BME280;63481;52.588;22.472;2023-02-04T00:35:05;99865.95;;;-1.30;82.71
34034;BME280;63481;52.588;22.472;2023-02-04T00:35:58;99868.77;;;-1.30;82.93
34034;BME280;63481;52.588;22.472;2023-02-04T00:36:51;99873.34;;;-1.32;83.07
34034;BME280;63481;52.588;22.472;2023-02-04T00:37:43;99874.39;;;-1.32;82.98
34034;BME280;63481;52.588;22.472;2023-02-04T00:38:36;99877.37;;;-1.32;83.25
34034;BME280;63481;52.588;22.472;2023-02-04T00:39:29;99876.59;;;-1.32;83.28
34034;BME280;63481;52.588;22.472;2023-02-04T00:40:21;99877.69;;;-1.32;83.19
34034;BME280;63481;52.588;22.472;2023-02-04T00:41:14;99878.41;;;-1.31;83.47
34034;BME280;63481;52.588;22.472;2023-02-04T00:42:07;99878.11;;;-1.31;83.42
34034;BME280;63481;52.588;22.472;2023-02-04T00:43:01;99879.05;;;-1.30;83.57
34034;BME280;63481;52.588;22.472;2023-02-04T00:43:54;99878.00;;;-1.32;83.72
34034;BME280;63481;52.588;22.472;2023-02-04T00:44:47;99880.58;;;-1.33;83.58
34034;BME280;63481;52.588;22.472;2023-02-04T00:45:40;99882.38;;;-1.34;83.77
34034;BME280;63481;52.588;22.472;2023-02-04T00:46:32;99884.45;;;-1.36;83.71
34034;BME280;63481;52.588;22.472;2023-02-04T00:47:25;99887.89;;;-1.37;83.96
34034;BME280;63481;52.588;22.472;2023-02-04T00:48:18;99888.26;;;-1.35;84.00
34034;BME280;63481;52.588;22.472;2023-02-04T00:49:11;99892.96;;;-1.35;84.00
34034;BME280;63481;52.588;22.472;2023-02-04T00:50:04;99894.93;;;-1.37;84.02
34034;BME280;63481;52.588;22.472;2023-02-04T00:50:57;99899.42;;;-1.37;84.02
34034;BME280;63481;52.588;22.472;2023-02-04T00:51:49;99898.91;;;-1.39;83.97
34034;BME280;63481;52.588;22.472;2023-02-04T00:52:42;99899.36;;;-1.40;83.92
34034;BME280;63481;52.588;22.472;2023-02-04T00:53:35;99904.26;;;-1.40;84.18
34034;BME280;63481;52.588;22.472;2023-02-04T00:54:28;99904.35;;;-1.43;84.22
34034;BME280;63481;52.588;22.472;2023-02-04T00:55:21;99911.25;;;-1.47;84.23
34034;BME280;63481;52.588;22.472;2023-02-04T00:56:14;99912.92;;;-1.44;84.23
34034;BME280;63481;52.588;22.472;2023-02-04T00:57:06;99913.65;;;-1.40;84.11
34034;BME280;63481;52.588;22.472;2023-02-04T00:57:59;99918.88;;;-1.37;84.07
34034;BME280;63481;52.588;22.472;2023-02-04T00:58:52;99923.94;;;-1.37;84.01
34034;BME280;63481;52.588;22.472;2023-02-04T00:59:44;99920.54;;;-1.39;83.93
34034;BME280;63481;52.588;22.472;2023-02-04T01:00:37;99922.67;;;-1.38;83.94
34034;BME280;63481;52.588;22.472;2023-02-04T01:01:30;99929.67;;;-1.38;83.99
34034;BME280;63481;52.588;22.472;2023-02-04T01:02:22;99934.55;;;-1.38;84.05
34034;BME280;63481;52.588;22.472;2023-02-04T01:03:15;99937.48;;;-1.36;83.88
34034;BME280;63481;52.588;22.472;2023-02-04T01:04:09;99943.93;;;-1.38;84.07
34034;BME280;63481;52.588;22.472;2023-02-04T01:05:03;99943.44;;;-1.38;84.05
34034;BME280;63481;52.588;22.472;2023-02-04T01:05:56;99947.90;;;-1.37;83.69
34034;BME280;63481;52.588;22.472;2023-02-04T01:06:49;99951.08;;;-1.38;83.67
34034;BME280;63481;52.588;22.472;2023-02-04T01:07:42;99953.00;;;-1.38;83.75
34034;BME280;63481;52.588;22.472;2023-02-04T01:08:36;99949.77;;;-1.41;83.93
34034;BME280;63481;52.588;22.472;2023-02-04T01:09:29;99948.06;;;-1.41;83.78
34034;BME280;63481;52.588;22.472;2023-02-04T01:10:23;99953.80;;;-1.41;83.78
34034;BME280;63481;52.588;22.472;2023-02-04T01:11:17;99954.88;;;-1.39;83.68
34034;BME280;63481;52.588;22.472;2023-02-04T01:12:11;99952.66;;;-1.42;83.65
34034;BME280;63481;52.588;22.472;2023-02-04T01:13:04;99950.45;;;-1.40;83.81
34034;BME280;63481;52.588;22.472;2023-02-04T01:13:58;99951.31;;;-1.40;83.72
34034;BME280;63481;52.588;22.472;2023-02-04T01:14:52;99954.11;;;-1.40;83.75
34034;BME280;63481;52.588;22.472;2023-02-04T01:15:45;99954.76;;;-1.40;83.47
34034;BME280;63481;52.588;22.472;2023-02-04T01:16:39;99954.66;;;-1.40;83.65
34034;BME280;63481;52.588;22.472;2023-02-04T01:17:32;99959.23;;;-1.45;83.46
34034;BME280;63481;52.588;22.472;2023-02-04T01:18:25;99963.42;;;-1.45;83.57
34034;BME280;63481;52.588;22.472;2023-02-04T01:19:18;99964.44;;;-1.43;83.49
34034;BME280;63481;52.588;22.472;2023-02-04T01:20:13;99968.89;;;-1.46;83.37
34034;BME280;63481;52.588;22.472;2023-02-04T01:21:07;99970.80;;;-1.46;83.44
34034;BME280;63481;52.588;22.472;2023-02-04T01:22:00;99969.45;;;-1.46;83.41
34034;BME280;63481;52.588;22.472;2023-02-04T01:22:53;99971.23;;;-1.45;83.42
34034;BME280;63481;52.588;22.472;2023-02-04T01:23:46;99975.98;;;-1.45;83.46
34034;BME280;63481;52.588;22.472;2023-02-04T01:24:42;99974.38;;;-1.43;83.37
34034;BME280;63481;52.588;22.472;2023-02-04T01:25:53;99975.98;;;-1.41;83.43
34034;BME280;63481;52.588;22.472;2023-02-04T01:26:47;99973.08;;;-1.40;83.40
34034;BME280;63481;52.588;22.472;2023-02-04T01:27:40;99977.52;;;-1.39;83.39
34034;BME280;63481;52.588;22.472;2023-02-04T01:28:34;99979.25;;;-1.41;83.27
34034;BME280;63481;52.588;22.472;2023-02-04T01:29:27;99980.34;;;-1.41;83.25
34034;BME280;63481;52.588;22.472;2023-02-04T01:30:20;99978.17;;;-1.40;83.23
34034;BME280;63481;52.588;22.472;2023-02-04T01:31:14;99983.64;;;-1.39;83.36
34034;BME280;63481;52.588;22.472;2023-02-04T01:32:07;99984.38;;;-1.40;83.20
34034;BME280;63481;52.588;22.472;2023-02-04T01:33:01;99985.80;;;-1.42;83.02
34034;BME280;63481;52.588;22.472;2023-02-04T01:33:55;99988.23;;;-1.42;83.08
34034;BME280;63481;52.588;22.472;2023-02-04T01:34:49;99987.59;;;-1.42;83.14
34034;BME280;63481;52.588;22.472;2023-02-04T01:35:43;99992.90;;;-1.45;82.91
34034;BME280;63481;52.588;22.472;2023-02-04T01:36:37;99999.53;;;-1.43;83.04
34034;BME280;63481;52.588;22.472;2023-02-04T01:37:30;99995.77;;;-1.42;83.20
34034;BME280;63481;52.588;22.472;2023-02-04T01:38:24;99997.02;;;-1.42;83.11
34034;BME280;63481;52.588;22.472;2023-02-04T01:39:17;99998.29;;;-1.43;83.01
34034;BME280;63481;52.588;22.472;2023-02-04T01:40:12;99992.83;;;-1.42;82.99
34034;BME280;63481;52.588;22.472;2023-02-04T01:41:06;99997.63;;;-1.43;82.80
34034;BME280;63481;52.588;22.472;2023-02-04T01:41:59;99999.25;;;-1.42;82.75
34034;BME280;63481;52.588;22.472;2023-02-04T01:42:53;99999.04;;;-1.44;82.82
34034;BME280;63481;52.588;22.472;2023-02-04T01:43:48;100001.82;;;-1.44;82.81
34034;BME280;63481;52.588;22.472;2023-02-04T01:44:41;100002.01;;;-1.46;82.68
34034;BME280;63481;52.588;22.472;2023-02-04T01:45:35;100004.33;;;-1.44;82.70
34034;BME280;63481;52.588;22.472;2023-02-04T01:46:28;100005.52;;;-1.42;82.52
34034;BME280;63481;52.588;22.472;2023-02-04T01:47:22;100005.89;;;-1.40;82.65
34034;BME280;63481;52.588;22.472;2023-02-04T01:48:18;100005.65;;;-1.41;82.51
34034;BME280;63481;52.588;22.472;2023-02-04T01:49:12;100010.61;;;-1.42;82.43
34034;BME280;63481;52.588;22.472;2023-02-04T01:50:14;100013.27;;;-1.43;82.37
34034;BME280;63481;52.588;22.472;2023-02-04T01:51:10;100017.27;;;-1.43;82.30
34034;BME280;63481;52.588;22.472;2023-02-04T01:52:04;100019.24;;;-1.41;82.29
34034;BME280;63481;52.588;22.472;2023-02-04T01:52:57;100020.98;;;-1.40;82.14
34034;BME280;63481;52.588;22.472;2023-02-04T01:53:51;100026.29;;;-1.40;82.05
34034;BME280;63481;52.588;22.472;2023-02-04T01:54:45;100028.23;;;-1.43;82.09
34034;BME280;63481;52.588;22.472;2023-02-04T01:55:38;100029.79;;;-1.42;81.90
34034;BME280;63481;52.588;22.472;2023-02-04T01:56:32;100031.64;;;-1.40;81.74
34034;BME280;63481;52.588;22.472;2023-02-04T01:57:25;100035.44;;;-1.39;81.70
34034;BME280;63481;52.588;22.472;2023-02-04T01:58:19;100039.73;;;-1.40;81.83
34034;BME280;63481;52.588;22.472;2023-02-04T01:59:15;100046.23;;;-1.41;81.76
34034;BME280;63481;52.588;22.472;2023-02-04T02:00:18;100047.73;;;-1.42;81.83
34034;BME280;63481;52.588;22.472;2023-02-04T02:01:41;100041.65;;;-1.41;81.63
34034;BME280;63481;52.588;22.472;2023-02-04T02:02:50;100049.52;;;-1.41;81.74
34034;BME280;63481;52.588;22.472;2023-02-04T02:03:45;100045.82;;;-1.36;81.54
34034;BME280;63481;52.588;22.472;2023-02-04T02:04:38;100046.92;;;-1.37;81.68
34034;BME280;63481;52.588;22.472;2023-02-04T02:05:46;100049.20;;;-1.37;81.62
34034;BME280;63481;52.588;22.472;2023-02-04T02:06:46;100047.11;;;-1.41;81.60
34034;BME280;63481;52.588;22.472;2023-02-04T02:07:41;100047.55;;;-1.40;81.53
34034;BME280;63481;52.588;22.472;2023-02-04T02:08:35;100051.60;;;-1.39;81.75
34034;BME280;63481;52.588;22.472;2023-02-04T02:09:29;100058.79;;;-1.37;81.62
34034;BME280;63481;52.588;22.472;2023-02-04T02:10:25;100060.13;;;-1.37;81.52
34034;BME280;63481;52.588;22.472;2023-02-04T02:11:18;100058.02;;;-1.38;81.63
34034;BME280;63481;52.588;22.472;2023-02-04T02:12:12;100065.23;;;-1.37;81.36
34034;BME280;63481;52.588;22.472;2023-02-04T02:13:07;100071.34;;;-1.37;81.53
34034;BME280;63481;52.588;22.472;2023-02-04T02:14:04;100073.43;;;-1.37;81.39
34034;BME280;63481;52.588;22.472;2023-02-04T02:14:58;100078.05;;;-1.36;81.45
34034;BME280;63481;52.588;22.472;2023-02-04T02:15:52;100080.45;;;-1.38;81.58
34034;BME280;63481;52.588;22.472;2023-02-04T02:16:45;100085.13;;;-1.37;81.54
34034;BME280;63481;52.588;22.472;2023-02-04T02:17:39;100082.08;;;-1.38;81.40
34034;BME280;63481;52.588;22.472;2023-02-04T02:18:32;100088.35;;;-1.38;81.31
34034;BME280;63481;52.588;22.472;2023-02-04T02:19:32;100090.63;;;-1.39;81.28
34034;BME280;63481;52.588;22.472;2023-02-04T02:20:28;100094.20;;;-1.41;81.46
34034;BME280;63481;52.588;22.472;2023-02-04T02:21:30;100093.73;;;-1.42;81.44
34034;BME280;63481;52.588;22.472;2023-02-04T02:22:31;100097.15;;;-1.41;81.38
34034;BME280;63481;52.588;22.472;2023-02-04T02:24:37;100098.44;;;-1.42;81.55
34034;BME280;63481;52.588;22.472;2023-02-04T02:25:31;100101.02;;;-1.40;81.24
34034;BME280;63481;52.588;22.472;2023-02-04T02:26:24;100105.46;;;-1.40;81.22
34034;BME280;63481;52.588;22.472;2023-02-04T02:27:17;100108.98;;;-1.43;81.04
34034;BME280;63481;52.588;22.472;2023-02-04T02:28:13;100110.31;;;-1.42;81.03
34034;BME280;63481;52.588;22.472;2023-02-04T02:29:07;100114.10;;;-1.42;80.96
34034;BME280;63481;52.588;22.472;2023-02-04T02:30:00;100115.35;;;-1.42;81.00
34034;BME280;63481;52.588;22.472;2023-02-04T02:30:54;100113.59;;;-1.44;80.95
34034;BME280;63481;52.588;22.472;2023-02-04T02:31:47;100117.15;;;-1.45;80.75
34034;BME280;63481;52.588;22.472;2023-02-04T02:32:41;100119.09;;;-1.45;80.73
34034;BME280;63481;52.588;22.472;2023-02-04T02:33:34;100121.68;;;-1.47;80.94
34034;BME280;63481;52.588;22.472;2023-02-04T02:34:28;100122.55;;;-1.44;80.77
34034;BME280;63481;52.588;22.472;2023-02-04T02:35:22;100125.81;;;-1.42;80.67
34034;BME280;63481;52.588;22.472;2023-02-04T02:36:16;100128.11;;;-1.41;80.63
34034;BME280;63481;52.588;22.472;2023-02-04T02:37:09;100126.71;;;-1.42;80.55
34034;BME280;63481;52.588;22.472;2023-02-04T02:38:03;100128.52;;;-1.43;80.53
34034;BME280;63481;52.588;22.472;2023-02-04T02:38:56;100131.83;;;-1.43;80.23
34034;BME280;63481;52.588;22.472;2023-02-04T02:39:53;100135.45;;;-1.46;80.33
34034;BME280;63481;52.588;22.472;2023-02-04T02:40:47;100137.46;;;-1.48;80.18
34034;BME280;63481;52.588;22.472;2023-02-04T02:41:41;100141.68;;;-1.44;80.21
34034;BME280;63481;52.588;22.472;2023-02-04T02:42:35;100147.16;;;-1.41;80.05
34034;BME280;63481;52.588;22.472;2023-02-04T02:43:29;100149.04;;;-1.42;80.16
34034;BME280;63481;52.588;22.472;2023-02-04T02:44:24;100150.58;;;-1.44;79.91
34034;BME280;63481;52.588;22.472;2023-02-04T02:45:22;100159.52;;;-1.47;79.95
34034;BME280;63481;52.588;22.472;2023-02-04T02:46:15;100161.92;;;-1.48;80.09
34034;BME280;63481;52.588;22.472;2023-02-04T02:47:13;100166.32;;;-1.51;79.79
34034;BME280;63481;52.588;22.472;2023-02-04T02:48:09;100168.86;;;-1.52;79.77
34034;BME280;63481;52.588;22.472;2023-02-04T02:49:03;100172.86;;;-1.52;79.81
34034;BME280;63481;52.588;22.472;2023-02-04T02:49:57;100171.76;;;-1.51;79.67
34034;BME280;63481;52.588;22.472;2023-02-04T02:50:50;100172.63;;;-1.49;79.50
34034;BME280;63481;52.588;22.472;2023-02-04T02:51:45;100179.23;;;-1.51;79.47
34034;BME280;63481;52.588;22.472;2023-02-04T02:52:38;100178.48;;;-1.50;79.27
34034;BME280;63481;52.588;22.472;2023-02-04T02:53:31;100182.38;;;-1.49;79.28
34034;BME280;63481;52.588;22.472;2023-02-04T02:54:29;100187.02;;;-1.50;79.00
34034;BME280;63481;52.588;22.472;2023-02-04T02:55:27;100185.04;;;-1.49;79.04
34034;BME280;63481;52.588;22.472;2023-02-04T02:56:21;100190.21;;;-1.49;78.73
34034;BME280;63481;52.588;22.472;2023-02-04T02:57:16;100196.77;;;-1.50;78.72
34034;BME280;63481;52.588;22.472;2023-02-04T02:58:18;100194.89;;;-1.50;78.82
34034;BME280;63481;52.588;22.472;2023-02-04T02:59:13;100207.48;;;-1.53;78.79
34034;BME280;63481;52.588;22.472;2023-02-04T03:00:20;100210.91;;;-1.54;78.77
34034;BME280;63481;52.588;22.472;2023-02-04T03:01:15;100211.02;;;-1.57;78.90
34034;BME280;63481;52.588;22.472;2023-02-04T03:02:10;100216.58;;;-1.61;78.77
34034;BME280;63481;52.588;22.472;2023-02-04T03:03:08;100213.64;;;-1.62;79.01
34034;BME280;63481;52.588;22.472;2023-02-04T03:04:03;100219.34;;;-1.61;78.79
34034;BME280;63481;52.588;22.472;2023-02-04T03:04:57;100218.25;;;-1.58;78.90
34034;BME280;63481;52.588;22.472;2023-02-04T03:06:04;100217.88;;;-1.56;78.84
34034;BME280;63481;52.588;22.472;2023-02-04T03:07:00;100221.73;;;-1.58;78.90
34034;BME280;63481;52.588;22.472;2023-02-04T03:07:53;100223.55;;;-1.61;79.07
34034;BME280;63481;52.588;22.472;2023-02-04T03:08:47;100226.14;;;-1.61;78.76
34034;BME280;63481;52.588;22.472;2023-02-04T03:09:40;100226.99;;;-1.63;79.09
34034;BME280;63481;52.588;22.472;2023-02-04T03:10:33;100232.94;;;-1.63;79.12
34034;BME280;63481;52.588;22.472;2023-02-04T03:11:26;100234.83;;;-1.63;78.98
34034;BME280;63481;52.588;22.472;2023-02-04T03:12:21;100239.23;;;-1.59;78.86
34034;BME280;63481;52.588;22.472;2023-02-04T03:13:14;100237.95;;;-1.58;78.93
34034;BME280;63481;52.588;22.472;2023-02-04T03:14:08;100241.72;;;-1.56;78.91
34034;BME280;63481;52.588;22.472;2023-02-04T03:15:02;100246.91;;;-1.55;78.94
34034;BME280;63481;52.588;22.472;2023-02-04T03:15:56;100251.25;;;-1.55;78.94
34034;BME280;63481;52.588;22.472;2023-02-04T03:16:49;100253.48;;;-1.57;79.02
34034;BME280;63481;52.588;22.472;2023-02-04T03:17:42;100256.73;;;-1.58;78.88
34034;BME280;63481;52.588;22.472;2023-02-04T03:18:35;100262.27;;;-1.60;78.81
34034;BME280;63481;52.588;22.472;2023-02-04T03:19:29;100263.91;;;-1.58;78.88
34034;BME280;63481;52.588;22.472;2023-02-04T03:20:24;100266.38;;;-1.58;79.03
34034;BME280;63481;52.588;22.472;2023-02-04T03:21:19;100270.98;;;-1.56;78.84
34034;BME280;63481;52.588;22.472;2023-02-04T03:22:11;100271.33;;;-1.55;78.86
34034;BME280;63481;52.588;22.472;2023-02-04T03:23:04;100274.17;;;-1.56;78.71
34034;BME280;63481;52.588;22.472;2023-02-04T03:23:57;100276.24;;;-1.58;78.89
34034;BME280;63481;52.588;22.472;2023-02-04T03:24:50;100281.04;;;-1.57;78.81
34034;BME280;63481;52.588;22.472;2023-02-04T03:25:43;100277.27;;;-1.57;78.80
34034;BME280;63481;52.588;22.472;2023-02-04T03:26:35;100279.69;;;-1.60;78.98
34034;BME280;63481;52.588;22.472;2023-02-04T03:27:29;100278.34;;;-1.60;79.02
34034;BME280;63481;52.588;22.472;2023-02-04T03:28:22;100283.48;;;-1.61;79.13
34034;BME280;63481;52.588;22.472;2023-02-04T03:29:15;100283.27;;;-1.63;79.06
34034;BME280;63481;52.588;22.472;2023-02-04T03:30:08;100289.50;;;-1.62;79.18
34034;BME280;63481;52.588;22.472;2023-02-04T03:31:01;100287.34;;;-1.59;79.03
34034;BME280;63481;52.588;22.472;2023-02-04T03:31:55;100290.39;;;-1.58;79.07
34034;BME280;63481;52.588;22.472;2023-02-04T03:32:49;100283.30;;;-1.59;79.03
34034;BME280;63481;52.588;22.472;2023-02-04T03:33:42;100291.73;;;-1.62;78.99
34034;BME280;63481;52.588;22.472;2023-02-04T03:34:35;100294.83;;;-1.61;79.01
34034;BME280;63481;52.588;22.472;2023-02-04T03:35:28;100297.20;;;-1.63;79.06
34034;BME280;63481;52.588;22.472;2023-02-04T03:36:22;100294.09;;;-1.63;79.33
34034;BME280;63481;52.588;22.472;2023-02-04T03:37:15;100299.42;;;-1.64;79.24
34034;BME280;63481;52.588;22.472;2023-02-04T03:38:08;100298.51;;;-1.66;79.37
34034;BME280;63481;52.588;22.472;2023-02-04T03:39:02;100298.41;;;-1.64;79.52
34034;BME280;63481;52.588;22.472;2023-02-04T03:39:55;100298.98;;;-1.65;79.47
34034;BME280;63481;52.588;22.472;2023-02-04T03:40:48;100300.69;;;-1.64;79.42
34034;BME280;63481;52.588;22.472;2023-02-04T03:41:41;100304.58;;;-1.65;79.40
34034;BME280;63481;52.588;22.472;2023-02-04T03:42:34;100300.81;;;-1.66;79.53
34034;BME280;63481;52.588;22.472;2023-02-04T03:43:28;100303.16;;;-1.63;79.52
34034;BME280;63481;52.588;22.472;2023-02-04T03:44:21;100302.73;;;-1.64;79.45
34034;BME280;63481;52.588;22.472;2023-02-04T03:45:18;100300.09;;;-1.66;79.43
34034;BME280;63481;52.588;22.472;2023-02-04T03:46:12;100302.66;;;-1.65;79.49
34034;BME280;63481;52.588;22.472;2023-02-04T03:47:05;100308.60;;;-1.65;79.47
34034;BME280;63481;52.588;22.472;2023-02-04T03:47:58;100309.95;;;-1.65;79.40
34034;BME280;63481;52.588;22.472;2023-02-04T03:48:52;100315.52;;;-1.65;79.52
34034;BME280;63481;52.588;22.472;2023-02-04T03:49:45;100317.08;;;-1.67;79.53
34034;BME280;63481;52.588;22.472;2023-02-04T03:50:38;100318.92;;;-1.68;79.63
34034;BME280;63481;52.588;22.472;2023-02-04T03:51:31;100323.25;;;-1.68;79.62
34034;BME280;63481;52.588;22.472;2023-02-04T03:52:25;100321.65;;;-1.67;79.58
34034;BME280;63481;52.588;22.472;2023-02-04T03:53:18;100317.98;;;-1.67;79.48
34034;BME280;63481;52.588;22.472;2023-02-04T03:54:11;100320.02;;;-1.66;79.63
34034;BME280;63481;52.588;22.472;2023-02-04T03:55:05;100322.33;;;-1.67;79.57
34034;BME280;63481;52.588;22.472;2023-02-04T03:55:58;100324.05;;;-1.69;79.57
34034;BME280;63481;52.588;22.472;2023-02-04T03:56:52;100320.75;;;-1.69;79.56
34034;BME280;63481;52.588;22.472;2023-02-04T03:57:45;100328.67;;;-1.68;79.64
34034;BME280;63481;52.588;22.472;2023-02-04T03:58:38;100332.45;;;-1.67;79.61
34034;BME280;63481;52.588;22.472;2023-02-04T03:59:32;100332.88;;;-1.66;79.52
34034;BME280;63481;52.588;22.472;2023-02-04T04:00:25;100342.91;;;-1.67;79.68
34034;BME280;63481;52.588;22.472;2023-02-04T04:01:18;100342.41;;;-1.65;79.72
34034;BME280;63481;52.588;22.472;2023-02-04T04:02:12;100345.23;;;-1.66;79.80
34034;BME280;63481;52.588;22.472;2023-02-04T04:03:05;100348.27;;;-1.64;79.95
34034;BME280;63481;52.588;22.472;2023-02-04T04:03:59;100348.09;;;-1.66;79.97
34034;BME280;63481;52.588;22.472;2023-02-04T04:04:52;100352.06;;;-1.68;79.95
34034;BME280;63481;52.588;22.472;2023-02-04T04:05:45;100352.09;;;-1.68;79.88
34034;BME280;63481;52.588;22.472;2023-02-04T04:06:37;100358.38;;;-1.67;80.09
34034;BME280;63481;52.588;22.472;2023-02-04T04:07:30;100352.94;;;-1.66;80.10
34034;BME280;63481;52.588;22.472;2023-02-04T04:08:22;100352.29;;;-1.65;80.06
34034;BME280;63481;52.588;22.472;2023-02-04T04:09:16;100357.83;;;-1.64;80.13
34034;BME280;63481;52.588;22.472;2023-02-04T04:10:09;100363.77;;;-1.63;80.14
34034;BME280;63481;52.588;22.472;2023-02-04T04:11:02;100360.30;;;-1.60;80.03
34034;BME280;63481;52.588;22.472;2023-02-04T04:11:55;100369.86;;;-1.60;80.08
34034;BME280;63481;52.588;22.472;2023-02-04T04:12:47;100366.98;;;-1.57;80.23
34034;BME280;63481;52.588;22.472;2023-02-04T04:13:40;100367.08;;;-1.56;80.31
34034;BME280;63481;52.588;22.472;2023-02-04T04:14:33;100365.90;;;-1.59;80.29
34034;BME280;63481;52.588;22.472;2023-02-04T04:15:25;100365.71;;;-1.58;80.25
34034;BME280;63481;52.588;22.472;2023-02-04T04:16:18;100367.95;;;-1.60;80.37
34034;BME280;63481;52.588;22.472;2023-02-04T04:17:12;100370.85;;;-1.62;80.52
34034;BME280;63481;52.588;22.472;2023-02-04T04:18:04;100374.26;;;-1.61;80.52
34034;BME280;63481;52.588;22.472;2023-02-04T04:18:57;100376.20;;;-1.59;80.69
34034;BME280;63481;52.588;22.472;2023-02-04T04:19:51;100381.05;;;-1.58;80.61
34034;BME280;63481;52.588;22.472;2023-02-04T04:20:43;100378.75;;;-1.56;80.93
34034;BME280;63481;52.588;22.472;2023-02-04T04:21:36;100379.92;;;-1.60;81.11
34034;BME280;63481;52.588;22.472;2023-02-04T04:22:29;100381.60;;;-1.61;81.12
34034;BME280;63481;52.588;22.472;2023-02-04T04:23:21;100381.77;;;-1.61;81.22
34034;BME280;63481;52.588;22.472;2023-02-04T04:24:14;100388.58;;;-1.59;81.54
34034;BME280;63481;52.588;22.472;2023-02-04T04:25:07;100394.79;;;-1.60;81.60
34034;BME280;63481;52.588;22.472;2023-02-04T04:26:00;100395.33;;;-1.60;81.68
34034;BME280;63481;52.588;22.472;2023-02-04T04:26:53;100399.80;;;-1.60;81.77
34034;BME280;63481;52.588;22.472;2023-02-04T04:27:45;100401.11;;;-1.57;81.88
34034;BME280;63481;52.588;22.472;2023-02-04T04:28:38;100406.13;;;-1.58;81.97
34034;BME280;63481;52.588;22.472;2023-02-04T04:29:31;100409.00;;;-1.57;82.22
34034;BME280;63481;52.588;22.472;2023-02-04T04:30:23;100409.96;;;-1.60;82.41
34034;BME280;63481;52.588;22.472;2023-02-04T04:31:16;100416.11;;;-1.59;82.35
34034;BME280;63481;52.588;22.472;2023-02-04T04:32:09;100417.42;;;-1.58;82.48
34034;BME280;63481;52.588;22.472;2023-02-04T04:33:02;100424.70;;;-1.57;82.79
34034;BME280;63481;52.588;22.472;2023-02-04T04:33:54;100425.30;;;-1.56;82.82
34034;BME280;63481;52.588;22.472;2023-02-04T04:34:47;100433.55;;;-1.55;82.89
34034;BME280;63481;52.588;22.472;2023-02-04T04:35:40;100430.55;;;-1.52;83.09
34034;BME280;63481;52.588;22.472;2023-02-04T04:36:32;100429.27;;;-1.53;83.17
34034;BME280;63481;52.588;22.472;2023-02-04T04:37:25;100438.87;;;-1.56;83.28
34034;BME280;63481;52.588;22.472;2023-02-04T04:38:18;100445.79;;;-1.57;83.44
34034;BME280;63481;52.588;22.472;2023-02-04T04:39:10;100440.34;;;-1.59;83.70
34034;BME280;63481;52.588;22.472;2023-02-04T04:40:03;100441.15;;;-1.63;83.98
34034;BME280;63481;52.588;22.472;2023-02-04T04:40:56;100444.06;;;-1.62;84.13